createdAt,value
2017-04-21T00:00:26.532Z,0
2017-04-21T00:01:35.742Z,0
2017-04-21T00:02:45.754Z,0
2017-04-21T00:03:54.968Z,0
2017-04-21T00:05:03.858Z,0
2017-04-21T00:06:12.928Z,0
2017-04-21T00:07:22.147Z,0
2017-04-21T00:08:31.237Z,0
2017-04-21T00:09:40.452Z,0
2017-04-21T00:10:49.985Z,0
2017-04-21T00:11:59.522Z,0
2017-04-21T00:13:08.737Z,0
2017-04-21T00:14:18.506Z,0
2017-04-21T00:15:28.048Z,0
2017-04-21T00:16:36.942Z,0
2017-04-21T00:17:45.825Z,0
2017-04-21T00:18:55.360Z,0
2017-04-21T00:20:04.394Z,0
2017-04-21T00:21:13.606Z,0
2017-04-21T00:22:22.491Z,0
2017-04-21T00:23:31.714Z,0
2017-04-21T00:24:41.577Z,0
2017-04-21T00:25:50.468Z,0
2017-04-21T00:26:59.355Z,0
2017-04-21T00:28:08.573Z,0
2017-04-21T00:29:17.792Z,0
2017-04-21T00:30:27.005Z,0
2017-04-21T00:31:36.141Z,0
2017-04-21T00:32:45.352Z,0
2017-04-21T00:33:54.568Z,0
2017-04-21T00:35:04.102Z,0
2017-04-21T00:36:12.986Z,0
2017-04-21T00:37:21.937Z,0
2017-04-21T00:38:31.152Z,0
2017-04-21T00:39:40.359Z,0
2017-04-21T00:40:49.249Z,0
2017-04-21T00:41:58.146Z,0
2017-04-21T00:43:07.541Z,0
2017-04-21T00:44:16.755Z,0
2017-04-21T00:45:25.970Z,0
2017-04-21T00:46:34.866Z,0
2017-04-21T00:47:44.411Z,0
2017-04-21T00:48:53.625Z,0
2017-04-21T00:50:03.158Z,0
2017-04-21T00:51:12.044Z,0
2017-04-21T00:52:20.937Z,0
2017-04-21T00:53:30.483Z,0
2017-04-21T00:54:39.847Z,0
2017-04-21T00:55:48.739Z,0
2017-04-21T00:56:58.282Z,0
2017-04-21T00:58:07.164Z,0
2017-04-21T00:59:17.024Z,0
2017-04-21T01:00:26.895Z,0
2017-04-21T01:01:35.781Z,0
2017-04-21T01:02:44.996Z,0
2017-04-21T01:03:54.544Z,0
2017-04-21T01:05:04.082Z,0
2017-04-21T01:06:13.347Z,0
2017-04-21T01:07:22.245Z,0
2017-04-21T01:08:31.458Z,0
2017-04-21T01:09:40.342Z,0
2017-04-21T01:10:49.239Z,0
2017-04-21T01:11:59.084Z,0
2017-04-21T01:13:07.972Z,0
2017-04-21T01:14:17.262Z,0
2017-04-21T01:15:26.546Z,0
2017-04-21T01:16:35.931Z,0
2017-04-21T01:17:45.305Z,0
2017-04-21T01:18:54.923Z,0
2017-04-21T01:20:03.901Z,0
2017-04-21T01:21:13.113Z,0
2017-04-21T01:22:22.323Z,0
2017-04-21T01:23:32.602Z,0
2017-04-21T01:24:41.487Z,0
2017-04-21T01:25:50.370Z,0
2017-04-21T01:26:59.586Z,0
2017-04-21T01:28:08.795Z,0
2017-04-21T01:29:18.339Z,0
2017-04-21T01:30:28.198Z,0
2017-04-21T01:31:37.413Z,0
2017-04-21T01:32:46.953Z,0
2017-04-21T01:33:56.490Z,0
2017-04-21T01:35:05.532Z,0
2017-04-21T01:36:14.423Z,0
2017-04-21T01:37:23.307Z,0
2017-04-21T01:38:32.852Z,0
2017-04-21T01:39:42.064Z,0
2017-04-21T01:40:51.753Z,0
2017-04-21T01:42:01.292Z,0
2017-04-21T01:43:10.504Z,0
2017-04-21T01:44:19.715Z,0
2017-04-21T01:45:28.625Z,0
2017-04-21T01:46:37.571Z,0
2017-04-21T01:47:46.458Z,0
2017-04-21T01:48:55.996Z,0
2017-04-21T01:50:05.213Z,0
2017-04-21T01:51:14.425Z,0
2017-04-21T01:52:23.789Z,0
2017-04-21T01:53:33.334Z,0
2017-04-21T01:54:43.192Z,0
2017-04-21T01:55:52.404Z,0
2017-04-21T01:57:01.953Z,0
2017-04-21T01:58:10.988Z,0
2017-04-21T01:59:20.523Z,0
2017-04-21T02:00:29.748Z,0
2017-04-21T02:01:38.957Z,0
2017-04-21T02:02:48.175Z,0
2017-04-21T02:03:57.599Z,0
2017-04-21T02:05:06.813Z,0
2017-04-21T02:06:16.994Z,0
2017-04-21T02:07:26.207Z,0
2017-04-21T02:08:35.423Z,0
2017-04-21T02:09:44.964Z,0
2017-04-21T02:10:54.268Z,0
2017-04-21T02:12:03.478Z,0
2017-04-21T02:13:12.983Z,0
2017-04-21T02:14:22.600Z,0
2017-04-21T02:15:33.171Z,0
2017-04-21T02:16:42.258Z,0
2017-04-21T02:17:52.710Z,0
2017-04-21T02:19:01.594Z,0
2017-04-21T02:20:10.489Z,0
2017-04-21T02:21:20.173Z,0
2017-04-21T02:22:29.386Z,0
2017-04-21T02:23:38.599Z,0
2017-04-21T02:24:47.812Z,0
2017-04-21T02:25:57.023Z,0
2017-04-21T02:27:06.381Z,0
2017-04-21T02:28:15.597Z,0
2017-04-21T02:29:24.492Z,0
2017-04-21T02:30:34.033Z,0
2017-04-21T02:31:42.925Z,0
2017-04-21T02:32:52.847Z,0
2017-04-21T02:34:02.055Z,0
2017-04-21T02:35:11.271Z,0
2017-04-21T02:36:20.156Z,0
2017-04-21T02:37:29.366Z,0
2017-04-21T02:38:38.628Z,0
2017-04-21T02:39:47.838Z,0
2017-04-21T02:40:56.729Z,0
2017-04-21T02:42:05.940Z,0
2017-04-21T02:43:15.478Z,0
2017-04-21T02:44:25.437Z,0
2017-04-21T02:45:34.973Z,0
2017-04-21T02:46:44.511Z,0
2017-04-21T02:47:53.722Z,0
2017-04-21T02:49:03.252Z,0
2017-04-21T02:50:12.939Z,0
2017-04-21T02:51:21.825Z,0
2017-04-21T02:52:31.051Z,0
2017-04-21T02:53:39.947Z,0
2017-04-21T02:54:49.486Z,0
2017-04-21T02:55:59.177Z,0
2017-04-21T02:57:08.061Z,0
2017-04-21T02:58:17.004Z,0
2017-04-21T02:59:26.221Z,0
2017-04-21T03:00:35.106Z,0
2017-04-21T03:01:44.057Z,0
2017-04-21T03:02:52.945Z,0
2017-04-21T03:04:02.161Z,0
2017-04-21T03:05:11.375Z,0
2017-04-21T03:06:20.587Z,0
2017-04-21T03:07:29.623Z,0
2017-04-21T03:08:39.167Z,0
2017-04-21T03:09:48.383Z,0
2017-04-21T03:10:57.591Z,0
2017-04-21T03:12:06.512Z,0
2017-04-21T03:13:15.602Z,0
2017-04-21T03:14:25.460Z,0
2017-04-21T03:15:34.556Z,0
2017-04-21T03:16:43.767Z,0
2017-04-21T03:17:53.302Z,0
2017-04-21T03:19:02.898Z,0
2017-04-21T03:20:11.788Z,0
2017-04-21T03:21:20.686Z,0
2017-04-21T03:22:29.581Z,0
2017-04-21T03:23:38.841Z,0
2017-04-21T03:24:48.207Z,0
2017-04-21T03:25:57.735Z,0
2017-04-21T03:27:06.621Z,0
2017-04-21T03:28:15.832Z,0
2017-04-21T03:29:25.049Z,0
2017-04-21T03:30:34.887Z,0
2017-04-21T03:31:44.756Z,0
2017-04-21T03:32:54.303Z,0
2017-04-21T03:34:03.513Z,0
2017-04-21T03:35:13.049Z,0
2017-04-21T03:36:21.938Z,0
2017-04-21T03:37:30.825Z,0
2017-04-21T03:38:40.041Z,0
2017-04-21T03:39:49.264Z,0
2017-04-21T03:40:58.161Z,0
2017-04-21T03:42:07.847Z,0
2017-04-21T03:43:17.713Z,4
2017-04-21T03:44:27.256Z,4
2017-04-21T03:45:36.468Z,4
2017-04-21T03:46:45.684Z,0
2017-04-21T03:47:55.378Z,0
2017-04-21T03:49:04.591Z,4
2017-04-21T03:50:14.452Z,4
2017-04-21T03:51:23.662Z,4
2017-04-21T03:52:32.879Z,8
2017-04-21T03:53:42.091Z,8
2017-04-21T03:54:51.631Z,8
2017-04-21T03:56:00.841Z,8
2017-04-21T03:57:09.733Z,8
2017-04-21T03:58:19.600Z,12
2017-04-21T03:59:28.639Z,12
2017-04-21T04:00:37.524Z,12
2017-04-21T04:01:46.412Z,16
2017-04-21T04:02:55.627Z,16
2017-04-21T04:04:04.839Z,20
2017-04-21T04:05:14.050Z,24
2017-04-21T04:06:22.942Z,24
2017-04-21T04:07:32.158Z,32
2017-04-21T04:08:41.384Z,36
2017-04-21T04:09:50.603Z,36
2017-04-21T04:11:00.123Z,44
2017-04-21T04:12:09.063Z,48
2017-04-21T04:13:18.274Z,52
2017-04-21T04:14:28.138Z,60
2017-04-21T04:15:37.675Z,60
2017-04-21T04:16:46.734Z,64
2017-04-21T04:17:55.947Z,68
2017-04-21T04:19:05.901Z,84
2017-04-21T04:20:15.148Z,100
2017-04-21T04:21:24.036Z,108
2017-04-21T04:22:33.238Z,116
2017-04-21T04:23:42.188Z,132
2017-04-21T04:24:51.204Z,144
2017-04-21T04:26:00.418Z,176
2017-04-21T04:27:09.303Z,196
2017-04-21T04:28:18.863Z,212
2017-04-21T04:29:27.745Z,224
2017-04-21T04:30:37.604Z,240
2017-04-21T04:31:46.492Z,256
2017-04-21T04:32:55.375Z,272
2017-04-21T04:34:04.906Z,288
2017-04-21T04:35:14.134Z,296
2017-04-21T04:36:23.342Z,300
2017-04-21T04:37:32.234Z,320
2017-04-21T04:38:41.116Z,356
2017-04-21T04:39:50.009Z,376
2017-04-21T04:40:59.252Z,380
2017-04-21T04:42:08.141Z,384
2017-04-21T04:43:17.028Z,384
2017-04-21T04:44:25.914Z,408
2017-04-21T04:45:34.853Z,396
2017-04-21T04:46:44.065Z,400
2017-04-21T04:47:52.956Z,408
2017-04-21T04:49:02.175Z,440
2017-04-21T04:50:11.439Z,460
2017-04-21T04:51:20.730Z,480
2017-04-21T04:52:29.623Z,552
2017-04-21T04:53:38.836Z,608
2017-04-21T04:54:47.734Z,640
2017-04-21T04:55:56.625Z,616
2017-04-21T04:57:05.668Z,540
2017-04-21T04:58:15.215Z,568
2017-04-21T04:59:24.102Z,620
2017-04-21T05:00:33.315Z,680
2017-04-21T05:01:42.859Z,768
2017-04-21T05:02:52.503Z,960
2017-04-21T05:04:02.376Z,1040
2017-04-21T05:05:11.267Z,1164
2017-04-21T05:06:20.149Z,1260
2017-04-21T05:07:29.037Z,1244
2017-04-21T05:08:38.182Z,1184
2017-04-21T05:09:47.720Z,1220
2017-04-21T05:10:56.960Z,1292
2017-04-21T05:12:06.831Z,1364
2017-04-21T05:13:16.045Z,1504
2017-04-21T05:14:25.558Z,1692
2017-04-21T05:15:34.442Z,1800
2017-04-21T05:16:43.332Z,2036
2017-04-21T05:17:52.549Z,2228
2017-04-21T05:19:02.086Z,2548
2017-04-21T05:20:11.182Z,2664
2017-04-21T05:21:20.069Z,2620
2017-04-21T05:22:29.075Z,2592
2017-04-21T05:23:38.616Z,2596
2017-04-21T05:24:47.919Z,2700
2017-04-21T05:25:56.808Z,2608
2017-04-21T05:27:06.861Z,2476
2017-04-21T05:28:16.472Z,2388
2017-04-21T05:29:26.168Z,2256
2017-04-21T05:30:35.708Z,2336
2017-04-21T05:31:45.508Z,2520
2017-04-21T05:32:55.382Z,2764
2017-04-21T05:34:04.595Z,2960
2017-04-21T05:35:14.131Z,3444
2017-04-21T05:36:23.345Z,3472
2017-04-21T05:37:32.716Z,3068
2017-04-21T05:38:41.930Z,3124
2017-04-21T05:39:51.469Z,3368
2017-04-21T05:41:00.356Z,4100
2017-04-21T05:42:09.240Z,5240
2017-04-21T05:43:18.881Z,5564
2017-04-21T05:44:28.747Z,6140
2017-04-21T05:45:37.965Z,6996
2017-04-21T05:46:47.501Z,7432
2017-04-21T05:47:57.703Z,6544
2017-04-21T05:49:06.891Z,5496
2017-04-21T05:50:16.127Z,4524
2017-04-21T05:51:25.342Z,4236
2017-04-21T05:52:34.553Z,4228
2017-04-21T05:53:43.769Z,4280
2017-04-21T05:54:53.133Z,4060
2017-04-21T05:56:02.695Z,3700
2017-04-21T05:57:11.599Z,3604
2017-04-21T05:58:20.840Z,3524
2017-04-21T05:59:30.057Z,3652
2017-04-21T06:00:39.580Z,3756
2017-04-21T06:01:48.795Z,3824
2017-04-21T06:02:58.031Z,3544
2017-04-21T06:04:07.571Z,3480
2017-04-21T06:05:16.784Z,3440
2017-04-21T06:06:25.827Z,3524
2017-04-21T06:07:34.719Z,3736
2017-04-21T06:08:43.937Z,4008
2017-04-21T06:09:53.156Z,4108
2017-04-21T06:11:02.704Z,4704
2017-04-21T06:12:11.652Z,5204
2017-04-21T06:13:20.868Z,5192
2017-04-21T06:14:30.413Z,4888
2017-04-21T06:15:39.951Z,4316
2017-04-21T06:16:49.164Z,3704
2017-04-21T06:17:58.870Z,3700
2017-04-21T06:19:07.764Z,3976
2017-04-21T06:20:16.978Z,3864
2017-04-21T06:21:25.868Z,3616
2017-04-21T06:22:35.088Z,3880
2017-04-21T06:23:44.076Z,4392
2017-04-21T06:24:53.676Z,5280
2017-04-21T06:26:02.572Z,6484
2017-04-21T06:27:12.295Z,8368
2017-04-21T06:28:21.596Z,9216
2017-04-21T06:29:31.008Z,6372
2017-04-21T06:30:40.221Z,5204
2017-04-21T06:31:49.112Z,3868
2017-04-21T06:32:58.328Z,3228
2017-04-21T06:34:07.225Z,3112
2017-04-21T06:35:16.537Z,3344
2017-04-21T06:36:25.752Z,3644
2017-04-21T06:37:34.639Z,4616
2017-04-21T06:38:43.529Z,6716
2017-04-21T06:39:52.743Z,6152
2017-04-21T06:41:01.682Z,5220
2017-04-21T06:42:11.223Z,6864
2017-04-21T06:43:21.092Z,7676
2017-04-21T06:44:30.306Z,7428
2017-04-21T06:45:39.197Z,8100
2017-04-21T06:46:48.238Z,7860
2017-04-21T06:47:57.137Z,8660
2017-04-21T06:49:06.368Z,9968
2017-04-21T06:50:16.234Z,10240
2017-04-21T06:51:25.776Z,9700
2017-04-21T06:52:35.044Z,9992
2017-04-21T06:53:44.599Z,9444
2017-04-21T06:54:54.474Z,7992
2017-04-21T06:56:03.359Z,7904
2017-04-21T06:57:12.252Z,7956
2017-04-21T06:58:21.191Z,8300
2017-04-21T06:59:31.061Z,7548
2017-04-21T07:00:39.950Z,6804
2017-04-21T07:01:48.835Z,7228
2017-04-21T07:02:58.057Z,7024
2017-04-21T07:04:07.202Z,7304
2017-04-21T07:05:16.439Z,8228
2017-04-21T07:06:25.333Z,7168
2017-04-21T07:07:34.876Z,7400
2017-04-21T07:08:45.076Z,7248
2017-04-21T07:09:54.765Z,6500
2017-04-21T07:11:03.990Z,6436
2017-04-21T07:12:13.259Z,6412
2017-04-21T07:13:22.802Z,6236
2017-04-21T07:14:32.351Z,6344
2017-04-21T07:15:41.972Z,5856
2017-04-21T07:16:50.865Z,5372
2017-04-21T07:17:59.767Z,6064
2017-04-21T07:19:08.663Z,6528
2017-04-21T07:20:17.885Z,7644
2017-04-21T07:21:27.099Z,8852
2017-04-21T07:22:35.990Z,8920
2017-04-21T07:23:45.202Z,8936
2017-04-21T07:24:55.013Z,8888
2017-04-21T07:26:04.237Z,8460
2017-04-21T07:27:13.557Z,8348
2017-04-21T07:28:22.775Z,8540
2017-04-21T07:29:32.074Z,9576
2017-04-21T07:30:41.446Z,10676
2017-04-21T07:31:50.836Z,11456
2017-04-21T07:33:00.240Z,11892
2017-04-21T07:34:10.112Z,11268
2017-04-21T07:35:19.333Z,10920
2017-04-21T07:36:28.778Z,10900
2017-04-21T07:38:47.763Z,9192
2017-04-21T07:39:57.312Z,9300
2017-04-21T07:41:07.266Z,9300
2017-04-21T07:42:16.567Z,9084
2017-04-21T07:43:26.656Z,8892
2017-04-21T07:44:35.606Z,9444
2017-04-21T07:45:44.497Z,9852
2017-04-21T07:46:53.396Z,10208
2017-04-21T07:48:02.626Z,10332
2017-04-21T07:49:11.617Z,10424
2017-04-21T07:50:20.832Z,10396
2017-04-21T07:51:29.724Z,10064
2017-04-21T07:52:38.619Z,9748
2017-04-21T07:53:47.832Z,9384
2017-04-21T07:54:57.204Z,8992
2017-04-21T07:56:06.102Z,8748
2017-04-21T07:57:14.992Z,8492
2017-04-21T07:58:24.211Z,8256
2017-04-21T07:59:33.101Z,8192
2017-04-21T08:01:54.563Z,7916
2017-04-21T08:03:03.791Z,8084
2017-04-21T08:04:13.030Z,8484
2017-04-21T08:05:22.249Z,8808
2017-04-21T08:06:31.956Z,9056
2017-04-21T08:07:41.171Z,9324
2017-04-21T08:08:50.064Z,9576
2017-04-21T08:09:59.284Z,9912
2017-04-21T08:11:08.502Z,10264
2017-04-21T08:12:17.597Z,10560
2017-04-21T08:13:26.815Z,10928
2017-04-21T08:14:35.706Z,11124
2017-04-21T08:15:44.597Z,10992
2017-04-21T08:16:53.502Z,10764
2017-04-21T08:18:02.983Z,10376
2017-04-21T08:19:11.871Z,9880
2017-04-21T08:20:20.860Z,9280
2017-04-21T08:21:29.996Z,8928
2017-04-21T08:22:39.315Z,8744
2017-04-21T08:23:48.701Z,8544
2017-04-21T08:24:58.588Z,8192
2017-04-21T08:26:07.481Z,8100
2017-04-21T08:27:16.930Z,8056
2017-04-21T08:28:26.473Z,8212
2017-04-21T08:29:36.134Z,8480
2017-04-21T08:30:45.373Z,9080
2017-04-21T08:31:54.658Z,9748
2017-04-21T08:33:03.881Z,10596
2017-04-21T08:34:13.753Z,11096
2017-04-21T08:35:23.341Z,11460
2017-04-21T08:36:32.556Z,11644
2017-04-21T08:37:41.449Z,11980
2017-04-21T08:38:50.672Z,12176
2017-04-21T08:40:00.557Z,12480
2017-04-21T08:41:09.601Z,12752
2017-04-21T08:42:18.822Z,12748
2017-04-21T08:43:28.045Z,12800
2017-04-21T08:44:36.932Z,12808
2017-04-21T08:45:46.156Z,12856
2017-04-21T08:46:55.044Z,12812
2017-04-21T08:48:04.263Z,13108
2017-04-21T08:49:13.482Z,13416
2017-04-21T08:50:22.388Z,13496
2017-04-21T08:51:31.631Z,13684
2017-04-21T08:52:40.869Z,13652
2017-04-21T08:53:50.415Z,13756
2017-04-21T08:55:00.295Z,13904
2017-04-21T08:56:09.197Z,13888
2017-04-21T08:57:18.736Z,13844
2017-04-21T08:58:27.780Z,13904
2017-04-21T08:59:36.997Z,13700
2017-04-21T09:00:45.885Z,13392
2017-04-21T09:01:54.773Z,13272
2017-04-21T09:03:03.993Z,13124
2017-04-21T09:04:13.031Z,12744
2017-04-21T09:05:22.585Z,12252
2017-04-21T09:06:31.519Z,11972
2017-04-21T09:07:40.418Z,12296
2017-04-21T09:08:49.645Z,12912
2017-04-21T09:09:59.239Z,13568
2017-04-21T09:11:08.148Z,13964
2017-04-21T09:12:17.058Z,13984
2017-04-21T09:13:26.287Z,14076
2017-04-21T09:14:35.836Z,14084
2017-04-21T09:15:45.359Z,14072
2017-04-21T09:16:54.902Z,13796
2017-04-21T09:18:03.804Z,13484
2017-04-21T09:19:13.673Z,13536
2017-04-21T09:20:23.218Z,13696
2017-04-21T09:21:32.259Z,13552
2017-04-21T09:22:41.151Z,13160
2017-04-21T09:23:50.694Z,13300
2017-04-21T09:24:59.927Z,13692
2017-04-21T09:26:08.833Z,13680
2017-04-21T09:27:18.522Z,13800
2017-04-21T09:28:27.746Z,14240
2017-04-21T09:29:37.295Z,14680
2017-04-21T09:34:35.558Z,15376
2017-04-21T09:37:24.913Z,16172
2017-04-21T09:38:56.641Z,17216
2017-04-21T09:40:05.860Z,17056
2017-04-21T09:41:14.758Z,17152
2017-04-21T09:43:14.070Z,17152
2017-04-21T09:44:30.521Z,17216
2017-04-21T09:45:39.765Z,17280
2017-04-21T09:46:49.306Z,17440
2017-04-21T09:47:58.213Z,17952
2017-04-21T09:49:07.981Z,18624
2017-04-21T09:50:26.681Z,18624
2017-04-21T09:55:36.077Z,18848
2017-04-21T10:06:45.334Z,14660
2017-04-21T10:09:29.893Z,12308
2017-04-21T10:10:39.120Z,12468
2017-04-21T10:11:48.015Z,14880
2017-04-21T10:12:57.714Z,16864
2017-04-21T10:14:07.093Z,15648
2017-04-21T10:15:16.365Z,15504
2017-04-21T10:16:25.912Z,16448
2017-04-21T10:17:35.609Z,11716
2017-04-21T10:18:45.480Z,12352
2017-04-21T10:19:55.352Z,16704
2017-04-21T10:21:04.903Z,17376
2017-04-21T10:22:13.795Z,17024
2017-04-21T10:23:22.788Z,18368
2017-04-21T10:24:32.981Z,20032
2017-04-21T10:25:42.201Z,19296
2017-04-21T10:26:51.121Z,20576
2017-04-21T10:28:00.342Z,20064
2017-04-21T10:29:09.723Z,20064
2017-04-21T10:30:18.620Z,18400
2017-04-21T10:31:27.531Z,17952
2017-04-21T10:32:36.755Z,17312
2017-04-21T10:33:45.659Z,17728
2017-04-21T10:34:54.603Z,15072
2017-04-21T10:36:03.494Z,13964
2017-04-21T10:37:12.385Z,13416
2017-04-21T10:38:21.606Z,15052
2017-04-21T10:39:31.166Z,13520
2017-04-21T10:40:40.110Z,10420
2017-04-21T10:41:49.007Z,11084
2017-04-21T10:42:58.225Z,10124
2017-04-21T10:44:07.443Z,6816
2017-04-21T10:45:16.658Z,6124
2017-04-21T10:46:25.801Z,6392
2017-04-21T10:47:35.018Z,5912
2017-04-21T10:48:44.565Z,6396
2017-04-21T10:49:53.784Z,7312
2017-04-21T10:51:02.680Z,7612
2017-04-21T10:52:11.903Z,7564
2017-04-21T10:53:20.806Z,5628
2017-04-21T10:54:30.612Z,5508
2017-04-21T10:55:39.500Z,5448
2017-04-21T10:56:48.443Z,5352
2017-04-21T10:57:57.842Z,5896
2017-04-21T10:59:07.142Z,5288
2017-04-21T11:00:17.032Z,5784
2017-04-21T11:01:26.251Z,7116
2017-04-21T11:02:35.139Z,6816
2017-04-21T11:03:44.356Z,5368
2017-04-21T11:04:53.910Z,6296
2017-04-21T11:06:02.800Z,8500
2017-04-21T11:07:11.688Z,8712
2017-04-21T11:08:20.901Z,9164
2017-04-21T11:09:30.545Z,9508
2017-04-21T11:10:39.435Z,9864
2017-04-21T11:11:48.325Z,9668
2017-04-21T11:12:57.873Z,9476
2017-04-21T11:14:06.767Z,9652
2017-04-21T11:15:16.229Z,9004
2017-04-21T11:16:25.451Z,10156
2017-04-21T11:17:34.993Z,12776
2017-04-21T11:18:44.206Z,13376
2017-04-21T11:19:53.100Z,14468
2017-04-21T11:21:02.292Z,13724
2017-04-21T11:22:11.201Z,14000
2017-04-21T11:23:20.421Z,15000
2017-04-21T11:24:29.963Z,15644
2017-04-21T11:25:38.850Z,17088
2017-04-21T11:26:48.049Z,17184
2017-04-21T11:27:56.939Z,17568
2017-04-21T11:29:06.151Z,18624
2017-04-21T11:30:15.058Z,19904
2017-04-21T11:31:23.956Z,20960
2017-04-21T11:32:33.002Z,21344
2017-04-21T11:33:42.217Z,21504
2017-04-21T11:34:51.117Z,21664
2017-04-21T11:36:00.668Z,21024
2017-04-21T11:37:09.889Z,20544
2017-04-21T11:38:19.214Z,17888
2017-04-21T11:39:29.102Z,15252
2017-04-21T11:40:39.528Z,12836
2017-04-21T11:41:48.884Z,10992
2017-04-21T11:42:57.969Z,11384
2017-04-21T11:44:07.025Z,12728
2017-04-21T11:45:16.783Z,11428
2017-04-21T11:46:26.137Z,9568
2017-04-21T11:47:35.045Z,9888
2017-04-21T11:48:43.939Z,11572
2017-04-21T11:49:53.208Z,10756
2017-04-21T11:51:02.756Z,8272
2017-04-21T11:52:11.971Z,8512
2017-04-21T11:53:20.863Z,9252
2017-04-21T11:54:30.406Z,8904
2017-04-21T11:55:39.880Z,7004
2017-04-21T11:56:49.098Z,6024
2017-04-21T11:57:57.985Z,6148
2017-04-21T11:59:06.873Z,7816
2017-04-21T12:00:15.766Z,8604
2017-04-21T12:01:25.234Z,9448
2017-04-21T12:02:34.457Z,8768
2017-04-21T12:03:43.353Z,8104
2017-04-21T12:04:52.250Z,8028
2017-04-21T12:06:01.148Z,8864
2017-04-21T12:07:10.342Z,10200
2017-04-21T12:08:19.236Z,8952
2017-04-21T12:09:28.449Z,7448
2017-04-21T12:10:37.662Z,8028
2017-04-21T12:11:46.880Z,7204
2017-04-21T12:12:56.573Z,8748
2017-04-21T12:14:06.128Z,10540
2017-04-21T12:15:15.342Z,14484
2017-04-21T12:16:24.231Z,14944
2017-04-21T12:17:33.143Z,12096
2017-04-21T12:18:42.192Z,12412
2017-04-21T12:19:51.409Z,12096
2017-04-21T12:21:00.299Z,11184
2017-04-21T12:22:09.190Z,11288
2017-04-21T12:23:18.085Z,9392
2017-04-21T12:24:27.875Z,8596
2017-04-21T12:25:36.765Z,7208
2017-04-21T12:26:45.659Z,6376
2017-04-21T12:27:55.216Z,6984
2017-04-21T12:29:04.437Z,7908
2017-04-21T12:30:14.190Z,7536
2017-04-21T12:31:23.417Z,5768
2017-04-21T12:32:32.637Z,5976
2017-04-21T12:33:41.848Z,5184
2017-04-21T12:34:51.395Z,4204
2017-04-21T12:36:01.140Z,4344
2017-04-21T12:37:10.046Z,4284
2017-04-21T12:38:19.588Z,3448
2017-04-21T12:39:28.615Z,3284
2017-04-21T12:40:37.689Z,3088
2017-04-21T12:41:47.214Z,2576
2017-04-21T12:42:56.107Z,2332
2017-04-21T12:44:05.330Z,2088
2017-04-21T12:45:14.226Z,1944
2017-04-21T12:46:23.114Z,1760
2017-04-21T12:47:32.591Z,1944
2017-04-21T12:48:41.809Z,2080
2017-04-21T12:49:51.025Z,1924
2017-04-21T12:51:00.245Z,2188
2017-04-21T12:52:09.139Z,2236
2017-04-21T12:53:18.201Z,2392
2017-04-21T12:54:27.798Z,3080
2017-04-21T12:55:36.692Z,5120
2017-04-21T12:56:45.911Z,6560
2017-04-21T12:57:55.127Z,7204
2017-04-21T12:59:04.826Z,6468
2017-04-21T13:00:14.045Z,6420
2017-04-21T13:01:23.263Z,10260
2017-04-21T13:02:32.479Z,12556
2017-04-21T13:03:41.695Z,11832
2017-04-21T13:04:50.915Z,11796
2017-04-21T13:06:00.132Z,10280
2017-04-21T13:07:09.021Z,9136
2017-04-21T13:08:17.910Z,8504
2017-04-21T13:09:27.130Z,7756
2017-04-21T13:10:36.073Z,7584
2017-04-21T13:11:44.966Z,6740
2017-04-21T13:12:53.854Z,5040
2017-04-21T13:14:02.747Z,3308
2017-04-21T13:15:11.963Z,2644
2017-04-21T13:16:21.228Z,2108
2017-04-21T13:17:30.443Z,2152
2017-04-21T13:18:39.330Z,1856
2017-04-21T13:19:48.547Z,1580
2017-04-21T13:20:57.766Z,1444
2017-04-21T13:22:07.306Z,1188
2017-04-21T13:23:16.531Z,1076
2017-04-21T13:24:26.072Z,1060
2017-04-21T13:25:35.613Z,976
2017-04-21T13:26:45.158Z,804
2017-04-21T13:27:54.848Z,804
2017-04-21T13:29:03.736Z,984
2017-04-21T13:30:12.634Z,1260
2017-04-21T13:31:21.853Z,1452
2017-04-21T13:32:30.891Z,1596
2017-04-21T13:33:39.834Z,1672
2017-04-21T13:34:49.057Z,1864
2017-04-21T13:35:58.775Z,2000
2017-04-21T13:37:07.885Z,2120
2017-04-21T13:38:17.884Z,2332
2017-04-21T13:39:27.577Z,2384
2017-04-21T13:40:36.625Z,2320
2017-04-21T13:41:45.524Z,2360
2017-04-21T13:42:54.802Z,2892
2017-04-21T13:44:03.747Z,3776
2017-04-21T13:45:13.112Z,5556
2017-04-21T13:46:22.000Z,8120
2017-04-21T13:47:30.982Z,9840
2017-04-21T13:48:40.859Z,8724
2017-04-21T13:49:50.402Z,7228
2017-04-21T13:50:59.610Z,5204
2017-04-21T13:52:08.833Z,4720
2017-04-21T13:53:18.049Z,4284
2017-04-21T13:54:27.270Z,4224
2017-04-21T13:55:36.164Z,4324
2017-04-21T13:56:45.235Z,4968
2017-04-21T13:57:55.114Z,5300
2017-04-21T13:59:04.665Z,5696
2017-04-21T14:00:13.552Z,5960
2017-04-21T14:01:22.443Z,5704
2017-04-21T14:02:31.917Z,5484
2017-04-21T14:03:40.805Z,5900
2017-04-21T14:04:50.020Z,6484
2017-04-21T14:05:58.926Z,6888
2017-04-21T14:07:07.813Z,7292
2017-04-21T14:08:17.429Z,7180
2017-04-21T14:09:27.630Z,5568
2017-04-21T14:10:37.174Z,4852
2017-04-21T14:11:46.396Z,4504
2017-04-21T14:12:55.285Z,3884
2017-04-21T14:14:05.089Z,3280
2017-04-21T14:15:14.305Z,2960
2017-04-21T14:16:23.193Z,2640
2017-04-21T14:17:32.085Z,2356
2017-04-21T14:18:41.955Z,2368
2017-04-21T14:19:51.494Z,2476
2017-04-21T14:21:00.387Z,2868
2017-04-21T14:22:09.600Z,2840
2017-04-21T14:23:18.816Z,2560
2017-04-21T14:24:28.047Z,3096
2017-04-21T14:25:37.310Z,2896
2017-04-21T14:26:46.205Z,2536
2017-04-21T14:27:55.425Z,3100
2017-04-21T14:29:04.694Z,3576
2017-04-21T14:30:13.583Z,4760
2017-04-21T14:31:23.049Z,4428
2017-04-21T14:32:32.260Z,3624
2017-04-21T14:33:41.804Z,3748
2017-04-21T14:34:50.703Z,4108
2017-04-21T14:35:59.606Z,3280
2017-04-21T14:37:09.074Z,3744
2017-04-21T14:38:18.293Z,3432
2017-04-21T14:39:27.516Z,3260
2017-04-21T14:40:36.410Z,3088
2017-04-21T14:41:45.623Z,3092
2017-04-21T14:42:54.659Z,2936
2017-04-21T14:44:03.889Z,3300
2017-04-21T14:45:13.108Z,3732
2017-04-21T14:46:22.323Z,2764
2017-04-21T14:47:31.534Z,1900
2017-04-21T14:48:41.007Z,1484
2017-04-21T14:49:50.238Z,1464
2017-04-21T14:50:59.461Z,1604
2017-04-21T14:52:08.356Z,2212
2017-04-21T14:53:17.903Z,2488
2017-04-21T14:54:27.274Z,3128
2017-04-21T14:55:36.159Z,5044
2017-04-21T14:56:45.383Z,4912
2017-04-21T14:57:54.280Z,3540
2017-04-21T14:59:03.175Z,2716
2017-04-21T15:00:12.548Z,2140
2017-04-21T15:01:21.438Z,2156
2017-04-21T15:02:30.326Z,1812
2017-04-21T15:03:39.541Z,1908
2017-04-21T15:04:48.433Z,2200
2017-04-21T15:05:57.381Z,2152
2017-04-21T15:07:06.597Z,3004
2017-04-21T15:08:15.829Z,4236
2017-04-21T15:09:25.703Z,4336
2017-04-21T15:10:35.248Z,5920
2017-04-21T15:11:45.031Z,6248
2017-04-21T15:12:53.923Z,6852
2017-04-21T15:14:03.465Z,6772
2017-04-21T15:15:13.221Z,8556
2017-04-21T15:16:23.043Z,7252
2017-04-21T15:17:32.086Z,5744
2017-04-21T15:18:40.984Z,4840
2017-04-21T15:19:50.265Z,4136
2017-04-21T15:20:59.233Z,3732
2017-04-21T15:22:08.127Z,4300
2017-04-21T15:23:17.545Z,4620
2017-04-21T15:24:26.644Z,4212
2017-04-21T15:25:35.662Z,5420
2017-04-21T15:26:44.562Z,5316
2017-04-21T15:27:54.068Z,4096
2017-04-21T15:29:03.097Z,3792
2017-04-21T15:30:13.118Z,3004
2017-04-21T15:31:22.433Z,2616
2017-04-21T15:32:31.975Z,2780
2017-04-21T15:33:41.187Z,3408
2017-04-21T15:34:50.131Z,4556
2017-04-21T15:35:59.349Z,5788
2017-04-21T15:37:08.241Z,6460
2017-04-21T15:38:17.133Z,5816
2017-04-21T15:39:26.020Z,5592
2017-04-21T15:40:34.958Z,5200
2017-04-21T15:41:44.177Z,4624
2017-04-21T15:42:54.044Z,4136
2017-04-21T15:44:03.260Z,4308
2017-04-21T15:45:12.470Z,3924
2017-04-21T15:46:21.563Z,3496
2017-04-21T15:47:30.783Z,3540
2017-04-21T15:48:39.999Z,3168
2017-04-21T15:49:49.223Z,2452
2017-04-21T15:50:58.113Z,2300
2017-04-21T15:52:07.151Z,1800
2017-04-21T15:53:16.058Z,1832
2017-04-21T15:54:25.273Z,2008
2017-04-21T15:55:34.161Z,2228
2017-04-21T15:56:43.381Z,2532
2017-04-21T15:57:52.858Z,2540
2017-04-21T15:59:02.399Z,2436
2017-04-21T16:00:11.289Z,2012
2017-04-21T16:01:20.511Z,2208
2017-04-21T16:02:29.407Z,2164
2017-04-21T16:03:39.096Z,2608
2017-04-21T16:04:47.988Z,2636
2017-04-21T16:05:57.206Z,2648
2017-04-21T16:07:06.094Z,2804